Time;durP1;ratioP1;P1;durP2;ratioP2;P2;SDS_P1;SDS_P2;PMS_P1;PMS_P2;Temp;Humidity;BMP_temperature;BMP_pressure;BME280_temperature;BME280_humidity;BME280_pressure;Samples;Min_cycle;Max_cycle;Signal;HPM_P1;HPM_P2
2022/09/03 00:00:54;;;;;;;6.13;5.73;;;17.70;99.90;;;;;;4927930;29;20203;-78
2022/09/03 00:03:29;;;;;;;6.67;6.17;;;17.70;99.90;;;;;;4937617;29;20267;-78
2022/09/03 00:06:09;;;;;;;6.10;5.70;;;17.70;99.90;;;;;;4937366;29;20740;-77
2022/09/03 00:08:42;;;;;;;6.40;5.90;;;17.70;99.90;;;;;;4936207;29;20203;-77
2022/09/03 00:11:14;;;;;;;6.10;5.70;;;17.70;99.90;;;;;;4935869;29;20203;-77
2022/09/03 00:13:46;;;;;;;6.27;5.87;;;17.60;99.90;;;;;;4935959;29;20203;-77
2022/09/03 00:16:20;;;;;;;6.23;5.83;;;17.60;99.90;;;;;;4928604;29;20203;-77
2022/09/03 00:18:52;;;;;;;6.40;6.00;;;17.60;99.90;;;;;;4936487;29;20202;-77
2022/09/03 00:21:26;;;;;;;6.13;5.80;;;17.60;99.90;;;;;;4937841;29;20198;-78
2022/09/03 00:23:55;;;;;;;6.20;5.80;;;17.60;99.90;;;;;;4938075;29;20203;-78
2022/09/03 00:26:27;;;;;;;6.23;5.83;;;17.60;99.90;;;;;;4937527;29;20210;-77
2022/09/03 00:28:59;;;;;;;6.20;5.80;;;17.60;99.90;;;;;;4937073;29;20199;-77
2022/09/03 00:31:31;;;;;;;6.10;5.70;;;17.60;99.90;;;;;;4936065;29;20665;-77
2022/09/03 00:34:04;;;;;;;6.23;5.80;;;17.60;99.90;;;;;;4938312;29;20282;-77
2022/09/03 00:36:36;;;;;;;6.93;6.33;;;17.70;99.90;;;;;;4937939;29;20200;-78
2022/09/03 00:39:03;;;;;;;6.10;5.70;;;17.70;99.90;;;;;;4938979;29;20254;-77
2022/09/03 00:41:40;;;;;;;5.80;5.47;;;17.70;99.90;;;;;;4941204;29;20234;-78
2022/09/03 00:44:52;;;;;;;6.20;5.80;;;17.70;99.90;;;;;;4939712;29;20199;-78
2022/09/03 00:47:27;;;;;;;6.20;5.80;;;17.80;99.90;;;;;;4934614;29;20234;-77
2022/09/03 00:50:08;;;;;;;6.40;6.00;;;17.80;99.90;;;;;;4939926;29;20203;-78
2022/09/03 00:52:45;;;;;;;6.30;5.90;;;17.80;99.90;;;;;;4940208;29;20647;-78
2022/09/03 00:55:21;;;;;;;6.00;5.60;;;17.80;99.90;;;;;;4931470;29;20580;-77
2022/09/03 00:58:02;;;;;;;5.90;5.50;;;17.80;99.90;;;;;;4941101;29;20216;-78
2022/09/03 01:00:29;;;;;;;6.10;5.70;;;17.90;99.90;;;;;;4940531;29;20646;-77
2022/09/03 01:03:06;;;;;;;5.70;5.40;;;17.80;99.90;;;;;;4939316;29;20704;-78
2022/09/03 01:06:00;;;;;;;5.97;5.57;;;17.80;99.90;;;;;;4939338;29;20314;-77
2022/09/03 01:08:38;;;;;;;5.50;5.20;;;17.80;99.90;;;;;;4935132;29;20278;-78
2022/09/03 01:11:19;;;;;;;5.70;5.30;;;17.80;99.90;;;;;;4940002;29;20239;-77
2022/09/03 01:13:57;;;;;;;6.07;5.67;;;17.80;99.90;;;;;;4936471;29;20581;-78
2022/09/03 01:16:30;;;;;;;5.80;5.50;;;17.80;99.90;;;;;;4940922;29;20615;-77
2022/09/03 01:19:05;;;;;;;5.80;5.50;;;17.80;99.90;;;;;;4939662;29;20207;-78
2022/09/03 01:21:57;;;;;;;6.20;5.80;;;17.80;99.90;;;;;;4939544;29;20625;-78
2022/09/03 01:24:46;;;;;;;6.00;5.63;;;17.70;99.90;;;;;;4934985;29;20560;-78
2022/09/03 01:27:30;;;;;;;6.27;5.77;;;17.70;99.90;;;;;;4931617;29;20332;-77
2022/09/03 01:30:04;;;;;;;6.70;6.30;;;17.70;99.90;;;;;;4941596;29;20204;-77
2022/09/03 01:32:43;;;;;;;6.13;5.83;;;17.70;99.90;;;;;;4941350;29;20225;-77
2022/09/03 01:35:18;;;;;;;6.27;5.87;;;17.70;99.90;;;;;;4932396;29;20668;-78
2022/09/03 01:37:58;;;;;;;6.23;5.83;;;17.70;99.90;;;;;;4938455;29;20289;-77
2022/09/03 01:40:34;;;;;;;6.70;6.20;;;17.70;99.90;;;;;;4940893;29;20206;-77
2022/09/03 01:43:19;;;;;;;6.53;5.93;;;17.70;99.90;;;;;;4938207;29;20223;-77
2022/09/03 01:45:58;;;;;;;6.30;5.90;;;17.70;99.90;;;;;;4938469;29;20207;-77
2022/09/03 01:48:53;;;;;;;6.50;6.10;;;17.70;99.90;;;;;;4940132;29;20203;-78
2022/09/03 01:51:22;;;;;;;6.20;5.80;;;17.70;99.90;;;;;;4896142;29;20215;-78
2022/09/03 01:54:18;;;;;;;6.13;5.73;;;17.70;99.90;;;;;;4938625;29;20213;-78
2022/09/03 01:57:02;;;;;;;6.50;6.10;;;17.70;99.90;;;;;;4940296;29;20263;-78
2022/09/03 01:59:33;;;;;;;6.57;5.97;;;17.70;99.90;;;;;;4939847;29;20647;-77
2022/09/03 02:02:06;;;;;;;6.23;5.83;;;17.70;99.90;;;;;;4938253;29;20231;-78
2022/09/03 02:04:33;;;;;;;6.00;5.70;;;17.60;99.90;;;;;;4938409;29;20207;-78
2022/09/03 02:07:02;;;;;;;6.30;5.80;;;17.70;99.90;;;;;;4938108;29;20240;-77
2022/09/03 02:09:29;;;;;;;5.90;5.60;;;17.60;99.90;;;;;;4942083;29;20200;-77
2022/09/03 02:12:01;;;;;;;6.50;6.10;;;17.60;99.90;;;;;;4940194;29;20215;-77
2022/09/03 02:14:29;;;;;;;6.30;5.90;;;17.60;99.90;;;;;;4938359;29;20278;-78
2022/09/03 02:16:59;;;;;;;6.23;5.83;;;17.60;99.90;;;;;;4937795;29;20263;-78
2022/09/03 02:19:28;;;;;;;5.80;5.50;;;17.60;99.90;;;;;;4939319;29;20195;-78
2022/09/03 02:21:57;;;;;;;6.37;5.97;;;17.60;99.90;;;;;;4937874;29;20277;-77
2022/09/03 02:24:25;;;;;;;6.00;5.70;;;17.50;99.90;;;;;;4938524;29;20259;-78
2022/09/03 02:26:52;;;;;;;6.20;5.80;;;17.50;99.90;;;;;;4937979;29;20702;-78
2022/09/03 02:29:20;;;;;;;6.27;5.87;;;17.50;99.90;;;;;;4939268;29;20226;-77
2022/09/03 02:31:47;;;;;;;6.40;6.00;;;17.50;99.90;;;;;;4939365;29;20207;-78
2022/09/03 02:34:14;;;;;;;6.40;6.00;;;17.40;99.90;;;;;;4938390;29;20255;-77
2022/09/03 02:36:45;;;;;;;6.33;5.93;;;17.40;99.90;;;;;;4939511;29;20203;-77
2022/09/03 02:39:12;;;;;;;6.47;6.07;;;17.30;99.90;;;;;;4932561;29;20214;-77
2022/09/03 02:41:39;;;;;;;6.50;6.10;;;17.20;99.90;;;;;;4937632;29;20234;-77
2022/09/03 02:44:12;;;;;;;6.73;6.33;;;17.10;99.90;;;;;;4939039;29;20223;-78
2022/09/03 02:46:43;;;;;;;6.67;6.27;;;17.00;99.90;;;;;;4937483;29;20215;-77
2022/09/03 02:49:10;;;;;;;6.90;6.40;;;16.90;99.90;;;;;;4933912;29;20202;-77
2022/09/03 02:51:39;;;;;;;7.20;6.70;;;16.90;99.90;;;;;;4939036;29;20219;-77
2022/09/03 02:54:09;;;;;;;6.73;6.23;;;16.80;99.90;;;;;;4937710;29;20203;-78
2022/09/03 02:56:36;;;;;;;6.70;6.30;;;16.80;99.90;;;;;;4936995;29;20207;-77
2022/09/03 02:59:03;;;;;;;6.53;6.13;;;16.80;99.90;;;;;;4938341;29;20209;-78
2022/09/03 03:01:30;;;;;;;6.50;6.10;;;16.80;99.90;;;;;;4937724;29;20199;-77
2022/09/03 03:03:57;;;;;;;6.30;5.90;;;16.70;99.90;;;;;;4938162;29;20219;-77
2022/09/03 03:06:24;;;;;;;6.73;6.23;;;16.70;99.90;;;;;;4938082;29;20202;-77
2022/09/03 03:08:52;;;;;;;6.73;6.27;;;16.60;99.90;;;;;;4939929;29;20207;-77
2022/09/03 03:11:21;;;;;;;6.70;6.30;;;16.50;99.90;;;;;;4936616;29;20242;-77
2022/09/03 03:13:48;;;;;;;6.90;6.40;;;16.40;99.90;;;;;;4938774;29;20246;-78
2022/09/03 03:16:17;;;;;;;6.80;6.40;;;16.30;99.90;;;;;;4938028;29;20250;-76
2022/09/03 03:18:45;;;;;;;6.80;6.40;;;16.30;99.90;;;;;;4936421;29;20214;-77
2022/09/03 03:21:14;;;;;;;7.07;6.53;;;16.30;99.90;;;;;;4930211;29;20187;-78
2022/09/03 03:23:41;;;;;;;6.87;6.40;;;16.20;99.90;;;;;;4937575;29;20566;-77
2022/09/03 03:26:12;;;;;;;6.90;6.40;;;16.20;99.90;;;;;;4937213;29;20238;-78
2022/09/03 03:28:41;;;;;;;7.37;6.77;;;16.10;99.90;;;;;;4936873;29;20209;-78
2022/09/03 03:31:08;;;;;;;7.00;6.60;;;16.10;99.90;;;;;;4938630;29;20192;-78
2022/09/03 03:33:35;;;;;;;7.17;6.67;;;16.10;99.90;;;;;;4937073;29;20218;-78
2022/09/03 03:36:06;;;;;;;7.10;6.70;;;16.10;99.90;;;;;;4937975;29;20206;-78
2022/09/03 03:38:33;;;;;;;7.27;6.77;;;16.20;99.90;;;;;;4935895;29;20304;-77
2022/09/03 03:41:06;;;;;;;7.30;6.80;;;16.20;99.90;;;;;;4936136;29;20213;-77
2022/09/03 03:43:33;;;;;;;7.00;6.60;;;16.20;99.90;;;;;;4937155;29;20763;-77
2022/09/03 03:46:01;;;;;;;7.30;6.90;;;16.30;99.90;;;;;;4936273;29;20656;-77
2022/09/03 03:48:28;;;;;;;7.60;7.10;;;16.40;99.90;;;;;;4936624;29;20203;-76
2022/09/03 03:50:54;;;;;;;7.60;7.10;;;16.40;99.90;;;;;;4937080;29;20197;-77
2022/09/03 03:53:21;;;;;;;8.50;8.00;;;16.40;99.90;;;;;;4937118;29;20226;-77
2022/09/03 03:55:55;;;;;;;7.17;6.60;;;16.40;99.90;;;;;;4935981;29;20203;-78
2022/09/03 03:58:23;;;;;;;7.57;7.07;;;16.40;99.90;;;;;;4935751;29;20212;-78
2022/09/03 04:00:50;;;;;;;8.37;7.87;;;16.40;99.90;;;;;;4938428;29;20277;-78
2022/09/03 04:03:18;;;;;;;7.83;7.30;;;16.40;99.90;;;;;;4937419;29;20328;-77
2022/09/03 04:05:55;;;;;;;7.47;6.97;;;16.50;99.90;;;;;;4937323;29;20259;-77
2022/09/03 04:08:22;;;;;;;7.40;6.90;;;16.50;99.90;;;;;;4934820;29;20308;-78
2022/09/03 04:10:50;;;;;;;7.50;7.00;;;16.50;99.90;;;;;;4935573;29;20222;-77
2022/09/03 04:13:16;;;;;;;8.10;7.50;;;16.50;99.90;;;;;;4935199;29;20218;-77
2022/09/03 04:15:43;;;;;;;7.90;7.33;;;16.50;99.90;;;;;;4939577;29;20645;-76
2022/09/03 04:18:10;;;;;;;7.60;7.10;;;16.40;99.90;;;;;;4936157;29;20617;-77
2022/09/03 04:20:39;;;;;;;7.57;7.07;;;16.40;99.90;;;;;;4938536;29;20698;-77
2022/09/03 04:23:06;;;;;;;8.23;7.73;;;16.30;99.90;;;;;;4937441;29;20647;-77
2022/09/03 04:25:32;;;;;;;7.73;7.23;;;16.30;99.90;;;;;;4935018;29;20202;-77
2022/09/03 04:27:59;;;;;;;7.67;7.07;;;16.30;99.90;;;;;;4938595;29;20248;-79
2022/09/03 04:30:27;;;;;;;7.10;6.70;;;16.20;99.90;;;;;;4936997;29;20199;-76
2022/09/03 04:32:52;;;;;;;7.50;7.00;;;16.20;99.90;;;;;;4938390;29;20233;-77
2022/09/03 04:35:20;;;;;;;7.47;6.97;;;16.20;99.90;;;;;;4936993;29;20198;-77
2022/09/03 04:37:48;;;;;;;7.47;6.97;;;16.30;99.90;;;;;;4935848;29;20286;-77
2022/09/03 04:40:15;;;;;;;7.20;6.63;;;16.20;99.90;;;;;;4936726;29;20664;-78
2022/09/03 04:42:41;;;;;;;7.40;6.90;;;16.20;99.90;;;;;;4937416;29;20227;-77
2022/09/03 04:45:10;;;;;;;7.50;7.00;;;16.20;99.90;;;;;;4937539;29;20267;-77
2022/09/03 04:47:37;;;;;;;8.77;8.17;;;16.20;99.90;;;;;;4929655;29;20293;-77
2022/09/03 04:50:04;;;;;;;7.60;7.10;;;16.20;99.90;;;;;;4938778;29;20752;-78
2022/09/03 04:52:31;;;;;;;7.60;7.10;;;16.20;99.90;;;;;;4937400;29;20231;-77
2022/09/03 04:55:00;;;;;;;7.30;6.80;;;16.20;99.90;;;;;;4937030;29;20231;-77
2022/09/03 04:57:33;;;;;;;7.97;7.37;;;16.20;99.90;;;;;;4937774;29;20203;-77
2022/09/03 05:00:00;;;;;;;7.40;6.90;;;16.20;99.90;;;;;;4938038;29;20208;-77
2022/09/03 05:02:27;;;;;;;7.20;6.70;;;16.20;99.90;;;;;;4937855;29;20227;-77
2022/09/03 05:04:53;;;;;;;7.93;7.27;;;16.30;99.90;;;;;;4932930;29;20227;-76
2022/09/03 05:07:20;;;;;;;8.23;7.63;;;16.30;99.90;;;;;;4933843;29;20214;-76
2022/09/03 05:09:47;;;;;;;7.80;7.20;;;16.30;99.90;;;;;;4937327;29;20208;-75
2022/09/03 05:12:16;;;;;;;7.50;6.90;;;16.30;99.90;;;;;;4943640;29;20231;-75
2022/09/03 05:14:43;;;;;;;7.50;7.00;;;16.30;99.90;;;;;;4935517;29;20416;-75
2022/09/03 05:17:10;;;;;;;7.67;7.17;;;16.30;99.90;;;;;;4929367;29;20257;-75
2022/09/03 05:19:36;;;;;;;7.43;6.93;;;16.30;99.90;;;;;;4935856;29;20665;-75
2022/09/03 05:22:03;;;;;;;7.90;7.40;;;16.30;99.90;;;;;;4935551;29;20298;-75
2022/09/03 05:24:30;;;;;;;7.60;7.10;;;16.40;99.90;;;;;;4935024;29;20219;-76
2022/09/03 05:26:57;;;;;;;8.07;7.57;;;16.40;99.90;;;;;;4935800;29;20305;-75
2022/09/03 05:29:25;;;;;;;7.77;7.27;;;16.50;99.90;;;;;;4936870;29;20735;-75
2022/09/03 05:31:52;;;;;;;7.72;7.22;;;16.50;99.90;;;;;;4935278;29;20449;-75
2022/09/03 05:34:19;;;;;;;7.60;7.20;;;16.60;99.90;;;;;;4935509;29;20200;-75
2022/09/03 05:36:47;;;;;;;7.40;7.00;;;16.70;99.90;;;;;;4935330;29;20266;-75
2022/09/03 05:39:14;;;;;;;7.40;7.00;;;16.80;99.90;;;;;;4937250;29;20231;-77
2022/09/03 05:41:44;;;;;;;7.57;7.10;;;16.90;99.90;;;;;;4938455;29;20980;-77
2022/09/03 05:44:11;;;;;;;7.87;7.37;;;17.00;99.90;;;;;;4936290;29;20718;-76
2022/09/03 05:46:39;;;;;;;7.60;7.00;;;17.10;99.90;;;;;;4932434;29;20735;-77
2022/09/03 05:49:07;;;;;;;8.20;7.70;;;17.20;99.90;;;;;;4935257;29;20270;-77
2022/09/03 05:51:35;;;;;;;7.50;7.10;;;17.30;99.90;;;;;;4934845;29;20230;-78
2022/09/03 05:54:02;;;;;;;8.43;7.93;;;17.40;99.90;;;;;;4936011;29;20198;-78
2022/09/03 05:56:30;;;;;;;8.20;7.70;;;17.50;99.90;;;;;;4938931;29;20195;-78
2022/09/03 05:58:59;;;;;;;6.90;6.47;;;17.50;99.90;;;;;;4938513;29;20262;-78
2022/09/03 06:01:28;;;;;;;8.20;7.70;;;17.60;99.90;;;;;;4938147;29;20274;-78
2022/09/03 06:03:58;;;;;;;6.47;6.00;;;17.70;99.90;;;;;;4938714;29;20227;-78
2022/09/03 06:06:26;;;;;;;3.40;3.10;;;17.80;99.90;;;;;;4938410;29;20244;-79
2022/09/03 06:08:53;;;;;;;5.07;4.60;;;17.90;99.90;;;;;;4940929;29;20203;-78
2022/09/03 06:11:26;;;;;;;3.10;2.90;;;18.00;99.90;;;;;;4940284;29;20206;-78
2022/09/03 06:13:54;;;;;;;4.67;4.27;;;18.10;99.90;;;;;;4939021;29;20214;-79
2022/09/03 06:16:21;;;;;;;7.20;6.70;;;18.00;99.90;;;;;;4939786;29;20200;-79
2022/09/03 06:18:48;;;;;;;6.90;6.40;;;17.90;99.90;;;;;;4937200;29;20214;-77
2022/09/03 06:21:16;;;;;;;5.07;4.67;;;17.80;99.90;;;;;;4935233;29;20296;-77
2022/09/03 06:23:43;;;;;;;5.27;4.87;;;17.80;99.90;;;;;;4936346;29;20582;-77
2022/09/03 06:26:12;;;;;;;5.70;5.30;;;17.80;99.90;;;;;;4933795;29;20204;-77
2022/09/03 06:28:42;;;;;;;7.10;6.60;;;17.80;99.90;;;;;;4936107;29;20208;-76
2022/09/03 06:31:12;;;;;;;7.20;6.70;;;17.90;99.90;;;;;;4936685;29;20193;-77
2022/09/03 06:33:41;;;;;;;6.97;6.50;;;18.00;99.90;;;;;;4935996;29;20204;-78
2022/09/03 06:36:10;;;;;;;6.07;5.63;;;18.10;99.90;;;;;;4930561;29;20205;-79
2022/09/03 06:38:39;;;;;;;6.63;6.23;;;18.30;99.90;;;;;;4936093;29;20255;-77
2022/09/03 06:41:09;;;;;;;7.40;6.90;;;18.40;99.90;;;;;;4935502;29;20283;-78
2022/09/03 06:43:37;;;;;;;6.43;6.00;;;18.50;99.90;;;;;;4929198;29;20250;-76
2022/09/03 06:46:06;;;;;;;4.80;4.50;;;18.70;99.90;;;;;;4936555;29;20220;-77
2022/09/03 06:48:35;;;;;;;7.47;6.87;;;18.80;99.90;;;;;;4936855;29;20709;-78
2022/09/03 06:51:05;;;;;;;7.33;6.93;;;18.80;99.90;;;;;;4936462;29;20253;-77
2022/09/03 06:53:33;;;;;;;7.53;7.03;;;19.00;99.90;;;;;;4936159;29;20730;-76
2022/09/03 06:56:03;;;;;;;2.83;2.63;;;19.00;99.90;;;;;;4936319;29;20683;-77
2022/09/03 06:58:32;;;;;;;7.00;6.53;;;19.10;99.90;;;;;;4935519;29;20663;-80
2022/09/03 07:01:02;;;;;;;6.73;6.33;;;19.20;99.90;;;;;;4934479;29;20210;-76
2022/09/03 07:03:29;;;;;;;6.30;5.80;;;19.30;99.90;;;;;;4933215;29;20315;-75
2022/09/03 07:06:00;;;;;;;5.37;4.90;;;19.20;99.90;;;;;;4933698;29;20547;-75
2022/09/03 07:08:28;;;;;;;7.30;6.80;;;19.20;99.90;;;;;;4931865;29;20260;-75
2022/09/03 07:10:55;;;;;;;6.07;5.63;;;19.30;99.90;;;;;;4934332;29;20221;-75
2022/09/03 07:13:23;;;;;;;5.53;5.13;;;19.20;99.90;;;;;;4932797;29;20316;-76
2022/09/03 07:15:59;;;;;;;6.97;6.57;;;19.30;99.90;;;;;;4933656;29;20680;-75
2022/09/03 07:18:25;;;;;;;3.20;3.00;;;19.30;99.90;;;;;;4933679;29;20201;-75
2022/09/03 07:20:52;;;;;;;3.27;2.70;;;19.40;99.90;;;;;;4935864;29;20202;-80
2022/09/03 07:23:19;;;;;;;3.73;2.90;;;19.40;99.90;;;;;;4936494;29;20251;-77
2022/09/03 07:25:53;;;;;;;2.97;2.77;;;19.40;99.90;;;;;;4934517;29;20585;-77
2022/09/03 07:28:20;;;;;;;6.50;6.10;;;19.30;99.90;;;;;;4935980;29;20280;-76
2022/09/03 07:30:48;;;;;;;3.07;2.73;;;19.40;99.90;;;;;;4935938;29;20717;-76
2022/09/03 07:33:15;;;;;;;3.17;2.90;;;19.30;99.90;;;;;;4932210;29;20233;-76
2022/09/03 07:35:42;;;;;;;4.53;3.27;;;19.20;99.90;;;;;;4928174;29;20206;-76
2022/09/03 07:38:08;;;;;;;3.57;3.27;;;19.10;99.90;;;;;;4933613;29;20253;-76
2022/09/03 07:40:35;;;;;;;3.67;3.17;;;19.10;99.90;;;;;;4933507;29;20556;-77
2022/09/03 07:43:03;;;;;;;3.40;3.10;;;19.00;99.90;;;;;;4933619;29;20281;-76
2022/09/03 07:45:30;;;;;;;7.23;6.63;;;19.00;99.90;;;;;;4933294;29;20225;-76
2022/09/03 07:47:58;;;;;;;7.67;7.10;;;19.00;99.90;;;;;;4938288;29;20260;-76
2022/09/03 07:50:24;;;;;;;6.90;6.30;;;19.00;99.90;;;;;;4932527;29;20210;-76
2022/09/03 07:52:57;;;;;;;8.07;7.33;;;19.10;99.90;;;;;;4933805;29;20229;-77
2022/09/03 07:55:24;;;;;;;8.00;7.30;;;19.10;99.90;;;;;;4932141;29;20195;-77
2022/09/03 07:57:55;;;;;;;8.70;8.00;;;19.10;99.90;;;;;;4934836;29;20266;-77
2022/09/03 08:00:22;;;;;;;8.20;7.50;;;19.20;99.90;;;;;;4934447;29;20199;-77
2022/09/03 08:02:51;;;;;;;8.00;7.30;;;19.30;99.90;;;;;;4935357;29;20591;-77
2022/09/03 08:05:20;;;;;;;8.43;7.83;;;19.40;99.90;;;;;;4935005;29;20687;-77
2022/09/03 08:07:47;;;;;;;8.43;7.83;;;19.80;99.90;;;;;;4934120;29;20657;-77
2022/09/03 08:10:15;;;;;;;8.23;7.63;;;20.40;99.90;;;;;;4932345;29;20224;-78
2022/09/03 08:12:42;;;;;;;8.20;7.50;;;20.70;99.90;;;;;;4933006;29;20318;-77
2022/09/03 08:15:10;;;;;;;8.20;7.60;;;20.80;99.90;;;;;;4933767;29;20223;-77
2022/09/03 08:17:37;;;;;;;8.00;7.30;;;20.70;99.90;;;;;;4932383;29;20207;-78
2022/09/03 08:20:04;;;;;;;8.23;7.73;;;20.70;99.90;;;;;;4933080;29;20618;-76
2022/09/03 08:22:33;;;;;;;8.83;7.97;;;21.10;99.90;;;;;;4933113;29;20655;-75
2022/09/03 08:25:00;;;;;;;8.40;7.80;;;21.20;99.90;;;;;;4930980;29;20318;-75
2022/09/03 08:27:27;;;;;;;4.23;3.93;;;21.10;99.90;;;;;;4934249;29;20198;-75
2022/09/03 08:29:55;;;;;;;8.13;7.50;;;21.10;99.90;;;;;;4933413;29;20195;-75
2022/09/03 08:32:21;;;;;;;9.97;9.37;;;21.10;99.90;;;;;;4932979;29;20287;-75
2022/09/03 08:34:49;;;;;;;3.33;3.03;;;21.10;99.90;;;;;;4933283;29;20242;-75
2022/09/03 08:37:16;;;;;;;4.77;3.17;;;21.10;99.90;;;;;;4934105;29;20199;-75
2022/09/03 08:39:45;;;;;;;6.40;5.90;;;21.20;99.90;;;;;;4933963;29;20210;-75
2022/09/03 08:42:30;;;;;;;3.30;3.00;;;21.50;99.90;;;;;;4926369;29;20776;-75
2022/09/03 08:45:01;;;;;;;7.73;7.03;;;22.20;99.90;;;;;;4933606;29;20270;-75
2022/09/03 08:47:33;;;;;;;7.33;6.83;;;22.80;99.90;;;;;;4933885;29;20306;-75
2022/09/03 08:50:08;;;;;;;6.07;5.63;;;22.90;99.90;;;;;;4933823;29;20203;-75
2022/09/03 08:52:44;;;;;;;6.20;5.60;;;23.00;99.90;;;;;;4933704;29;20226;-75
2022/09/03 08:55:21;;;;;;;7.07;6.63;;;23.10;99.90;;;;;;4931969;29;20210;-75
2022/09/03 08:57:51;;;;;;;3.20;2.90;;;23.20;99.90;;;;;;4933845;29;20262;-75
2022/09/03 09:00:19;;;;;;;7.67;7.17;;;23.10;99.90;;;;;;4935088;29;20198;-75
2022/09/03 09:03:04;;;;;;;7.63;7.13;;;23.30;99.90;;;;;;4937058;29;20231;-75
2022/09/03 09:05:42;;;;;;;7.63;7.13;;;23.80;99.90;;;;;;4937034;29;20219;-75
2022/09/03 09:08:18;;;;;;;7.63;7.13;;;24.10;99.90;;;;;;4936288;29;20612;-75
2022/09/03 09:10:49;;;;;;;7.20;6.70;;;24.60;99.90;;;;;;4934054;29;20669;-75
2022/09/03 09:13:24;;;;;;;3.27;2.97;;;25.10;99.90;;;;;;4935486;29;20270;-75
2022/09/03 09:15:57;;;;;;;6.67;6.20;;;25.70;99.90;;;;;;4934668;29;20254;-75
2022/09/03 09:18:30;;;;;;;7.80;7.20;;;25.70;99.90;;;;;;4935747;29;20263;-75
2022/09/03 09:21:07;;;;;;;5.13;4.70;;;26.10;99.90;;;;;;4935534;29;20250;-75
2022/09/03 09:23:39;;;;;;;5.23;4.80;;;26.10;99.90;;;;;;4936783;29;20222;-75
2022/09/03 09:26:12;;;;;;;5.53;5.03;;;26.00;99.90;;;;;;4935536;29;20226;-75
2022/09/03 09:28:39;;;;;;;4.87;4.47;;;25.70;99.90;;;;;;4935856;29;20215;-75
2022/09/03 09:31:11;;;;;;;6.43;5.83;;;25.60;99.90;;;;;;4936706;29;20574;-75
2022/09/03 09:33:38;;;;;;;7.00;6.53;;;25.60;99.90;;;;;;4936170;28;20218;-74
2022/09/03 09:36:08;;;;;;;6.90;6.40;;;25.30;99.90;;;;;;4936710;29;20251;-75
2022/09/03 09:38:36;;;;;;;6.60;6.07;;;25.10;99.90;;;;;;4935469;29;20213;-75
2022/09/03 09:41:12;;;;;;;7.27;6.77;;;24.90;99.90;;;;;;4936607;29;20254;-75
2022/09/03 09:43:40;;;;;;;6.23;5.83;;;24.80;99.90;;;;;;4936329;29;20203;-75
2022/09/03 09:46:12;;;;;;;7.13;6.63;;;24.90;99.90;;;;;;4936276;29;20270;-75
2022/09/03 09:48:47;;;;;;;6.80;6.33;;;24.90;99.90;;;;;;4936642;29;20649;-75
2022/09/03 09:51:19;;;;;;;6.83;6.40;;;24.80;99.90;;;;;;4933836;29;20271;-75
2022/09/03 09:53:46;;;;;;;6.83;6.37;;;24.70;99.90;;;;;;4934808;29;20250;-75
2022/09/03 09:56:23;;;;;;;7.00;6.47;;;24.60;99.90;;;;;;4936487;29;20242;-75
2022/09/03 09:58:51;;;;;;;6.70;6.30;;;24.90;99.90;;;;;;4934977;29;20203;-75
2022/09/03 10:01:24;;;;;;;6.93;6.43;;;24.90;99.90;;;;;;4936284;29;20198;-75
2022/09/03 10:03:54;;;;;;;6.90;6.40;;;24.90;99.90;;;;;;4936118;29;20557;-75
2022/09/03 10:09:10;;;;;;;6.90;6.40;;;25.00;99.90;;;;;;4935846;29;20187;-75
2022/09/03 10:11:42;;;;;;;6.97;6.47;;;25.00;99.90;;;;;;4934811;29;20231;-75
2022/09/03 10:14:19;;;;;;;6.40;6.00;;;24.80;99.90;;;;;;4928202;29;20192;-75
2022/09/03 10:16:49;;;;;;;7.13;6.63;;;24.60;99.90;;;;;;4936027;29;20203;-75
2022/09/03 10:19:19;;;;;;;7.03;6.53;;;24.60;99.90;;;;;;4929246;29;20191;-75
2022/09/03 10:21:54;;;;;;;6.77;6.27;;;24.40;99.90;;;;;;4934533;29;20337;-75
2022/09/03 10:24:38;;;;;;;5.43;5.03;;;24.60;99.90;;;;;;4934435;29;20259;-75
2022/09/03 10:27:10;;;;;;;6.20;5.70;;;24.90;99.90;;;;;;4934476;29;20222;-75
2022/09/03 10:29:39;;;;;;;5.50;5.20;;;25.00;99.90;;;;;;4934615;29;20195;-75
2022/09/03 10:32:21;;;;;;;5.93;5.53;;;24.90;99.90;;;;;;4934342;29;20278;-75
2022/09/03 10:34:58;;;;;;;6.33;5.73;;;25.00;99.90;;;;;;4932328;29;20203;-75
2022/09/03 10:37:34;;;;;;;6.47;5.90;;;24.80;99.90;;;;;;4935699;29;20203;-75
2022/09/03 10:40:29;;;;;;;6.20;5.80;;;24.80;99.90;;;;;;4935258;29;20266;-75
2022/09/03 10:43:14;;;;;;;6.23;5.80;;;24.90;99.90;;;;;;4933807;29;20233;-75
2022/09/03 10:45:53;;;;;;;6.73;6.17;;;24.80;99.90;;;;;;4935498;29;20748;-75
2022/09/03 10:48:34;;;;;;;6.43;5.87;;;24.70;99.90;;;;;;4928925;29;20203;-75
2022/09/03 10:51:05;;;;;;;6.70;6.20;;;24.60;99.90;;;;;;4935207;29;20275;-75
2022/09/03 10:53:50;;;;;;;5.27;4.87;;;24.60;99.90;;;;;;4935389;29;20584;-75
2022/09/03 10:56:20;;;;;;;6.00;5.60;;;24.50;99.90;;;;;;4928208;29;20278;-75
2022/09/03 10:59:11;;;;;;;5.70;5.30;;;24.50;99.90;;;;;;4933804;29;20228;-75
2022/09/03 11:01:46;;;;;;;5.47;5.13;;;24.50;99.90;;;;;;4935214;29;20215;-75
2022/09/03 11:04:27;;;;;;;5.00;4.70;;;24.60;99.90;;;;;;4927869;29;20210;-75
2022/09/03 11:06:58;;;;;;;5.67;5.27;;;24.70;99.90;;;;;;4935006;29;20266;-75
2022/09/03 11:09:35;;;;;;;4.27;3.97;;;24.70;99.90;;;;;;4933926;29;20266;-75
2022/09/03 11:12:06;;;;;;;5.83;5.40;;;24.80;99.90;;;;;;4934917;29;20344;-75
2022/09/03 11:14:40;;;;;;;6.43;5.93;;;24.80;99.90;;;;;;4934896;29;20214;-75
2022/09/03 11:17:12;;;;;;;6.10;5.70;;;24.70;99.90;;;;;;4933958;29;20632;-75
2022/09/03 11:19:46;;;;;;;6.40;5.90;;;24.60;99.90;;;;;;4933649;29;20258;-76
2022/09/03 11:22:16;;;;;;;6.40;5.90;;;24.50;99.90;;;;;;4927907;29;20222;-77
2022/09/03 11:24:45;;;;;;;6.73;6.23;;;24.30;99.90;;;;;;4930301;29;20672;-77
2022/09/03 11:27:25;;;;;;;6.73;6.23;;;24.00;99.90;;;;;;4928895;29;20270;-77
2022/09/03 11:29:59;;;;;;;6.93;6.50;;;23.70;99.90;;;;;;4929670;29;20214;-75
2022/09/03 11:32:40;;;;;;;6.80;6.30;;;23.50;99.90;;;;;;4926289;29;20295;-75
2022/09/03 11:35:14;;;;;;;6.57;6.07;;;23.20;99.90;;;;;;4918190;29;20207;-75
2022/09/03 11:37:52;;;;;;;6.33;5.77;;;23.00;99.90;;;;;;4920515;29;20735;-75
2022/09/03 11:40:20;;;;;;;6.47;5.90;;;22.70;99.90;;;;;;4919181;29;20629;-75
2022/09/03 11:42:47;;;;;;;7.37;6.77;;;22.40;99.90;;;;;;4924567;29;20603;-75
2022/09/03 11:45:23;;;;;;;7.17;6.57;;;22.20;99.90;;;;;;4934276;29;20697;-75
2022/09/03 11:47:50;;;;;;;8.57;7.53;;;22.10;99.90;;;;;;4931920;29;20209;-75
2022/09/03 11:50:21;;;;;;;8.03;7.43;;;21.90;99.90;;;;;;4933402;29;20271;-74
2022/09/03 11:52:50;;;;;;;5.60;3.23;;;21.40;99.90;;;;;;4934170;29;20547;-74
2022/09/03 11:55:32;;;;;;;8.70;4.27;;;20.90;99.90;;;;;;4930795;29;20195;-74
2022/09/03 11:58:10;;;;;;;9.10;7.63;;;20.20;99.90;;;;;;4924403;29;20702;-74
2022/09/03 12:00:43;;;;;;;8.13;7.23;;;19.50;99.90;;;;;;4934439;29;20201;-74
2022/09/03 12:03:16;;;;;;;7.40;6.90;;;19.00;99.90;;;;;;4932490;29;20226;-73
2022/09/03 12:05:56;;;;;;;6.90;6.30;;;18.60;99.90;;;;;;4933092;29;20230;-74
2022/09/03 12:08:45;;;;;;;6.50;6.00;;;18.30;99.90;;;;;;4933652;29;20683;-74
2022/09/03 12:11:29;;;;;;;6.80;6.30;;;17.90;99.90;;;;;;4929567;29;20577;-74
2022/09/03 12:14:03;;;;;;;7.00;6.50;;;17.80;99.90;;;;;;4933936;29;20350;-74
2022/09/03 12:16:48;;;;;;;7.10;6.60;;;17.80;99.90;;;;;;4932965;29;20230;-74
2022/09/03 12:19:25;;;;;;;8.43;7.00;;;17.70;99.90;;;;;;4927322;29;20199;-74
2022/09/03 12:21:52;;;;;;;7.70;7.00;;;17.60;99.90;;;;;;4934080;29;20275;-75
2022/09/03 12:24:22;;;;;;;7.67;6.87;;;17.60;99.90;;;;;;4933844;29;20746;-73
2022/09/03 12:26:49;;;;;;;7.47;6.80;;;17.60;99.90;;;;;;4933981;29;20226;-74
2022/09/03 12:29:24;;;;;;;7.50;6.80;;;17.60;99.90;;;;;;4934078;29;20254;-74
2022/09/03 12:31:55;;;;;;;9.30;6.93;;;17.60;99.90;;;;;;4933854;29;20780;-74
2022/09/03 12:34:22;;;;;;;7.40;6.80;;;17.60;99.90;;;;;;4933931;29;20547;-74
2022/09/03 12:36:51;;;;;;;7.30;6.60;;;17.60;99.90;;;;;;4936361;29;20226;-74
2022/09/03 12:39:22;;;;;;;7.50;6.90;;;17.50;99.90;;;;;;4937941;29;20619;-73
2022/09/03 12:42:00;;;;;;;7.37;6.60;;;17.60;99.90;;;;;;4936162;29;20243;-73
2022/09/03 12:44:30;;;;;;;7.37;6.77;;;17.60;99.90;;;;;;4936245;29;20262;-74
2022/09/03 12:47:07;;;;;;;2.57;2.20;;;17.70;99.90;;;;;;4937322;29;20224;-74
2022/09/03 12:49:36;;;;;;;2.40;2.20;;;17.80;99.90;;;;;;4936354;29;20199;-74
2022/09/03 12:52:08;;;;;;;3.50;3.10;;;18.10;99.90;;;;;;4936078;29;20241;-74
2022/09/03 12:54:40;;;;;;;2.10;2.00;;;18.20;99.90;;;;;;4937250;29;20255;-74
2022/09/03 12:57:09;;;;;;;2.80;2.03;;;18.30;99.90;;;;;;4936160;29;20211;-74
2022/09/03 12:59:38;;;;;;;2.57;2.00;;;18.30;99.90;;;;;;4937756;29;20195;-74
2022/09/03 13:02:16;;;;;;;2.67;2.20;;;18.40;99.90;;;;;;4937541;29;20231;-73
2022/09/03 13:04:45;;;;;;;6.30;5.90;;;18.50;99.90;;;;;;4937107;29;20265;-73
2022/09/03 13:07:22;;;;;;;6.37;5.97;;;18.50;99.90;;;;;;4937227;29;20221;-74
2022/09/03 13:09:49;;;;;;;7.23;6.63;;;18.60;99.90;;;;;;4935935;29;20225;-73
2022/09/03 13:12:28;;;;;;;8.17;7.47;;;18.50;99.90;;;;;;4936955;29;20299;-74